Hay River Airport
CYHY : now visible

Airfield :











YOU CAN JOIN US ON...

 
LOGIN :

Register | Disclaimer

   EN    FR    IT 

 









Legend :    VFR   Marginal VFR   IFR   Intensive IFR   Very Intensive IFR
Visi :
Ceiling :
>= 8 km
>= 3000ft
5 to 8 km
1000 to 3000 ft
1500m to 5 km
500 to 1000 ft
800 to 1500m
200 to 500 ft
< 800m
< 200 ft
Symbols :   Thunderstorms  Fog  Heavy snow  Heavy precipitations  Wind > 20 kt






- Airport Elevation : 543 ft
- IATA code : YHY


CYHY - Hay River

CURRENT METAR :
  • 272100Z 09012KT 15SM FEW010 SCT013 BKN180 M05/M09 A2985 RMK SC1SC2AC4 SLP123

EXPIRED METARs :
  • 272000Z 08012KT 15SM SCT012 BKN180 BKN200 M05/M08 A2982 RMK SC3AC2CI2 SLP111
  • 271900Z 08009KT 15SM SCT011 BKN180 BKN200 M06/M08 A2978 RMK SC3AC3CI1 SLP099

TAF TAF CYHY
Valid from the 27 at 18:00 until the 28 at 06:00 UTC


271739Z 2718/2806 09012KT P6SM SCT012 BKN050
TEMPO 2718/2806 P6SM -SN BKN012 BKN030 RMK NXT FCST BY 280000Z
CZEG FIR / North America



MET'MAP, your aeronautical weather chart ! - Copyright ORBIFLY December 2007 - Disclaimer

ORBIFLY MET'MAP TEAM :

Programming & Development : Alexandra Zaïnal
Concept & original design : Baudouin d'Aumeries
Assistance for programming : Marc-Olivier Méhu
Technical & hardware support : Manuel Goepfert

Contact : metmap@orbifly.com




SOURCES & CREDITS :

   NOAA       Earth
Advisory